sensor_id;sensor_type;location;lat;lon;timestamp;temperature;humidity
72756;SHT30;60881;55.002;73.232;2022-09-09T00:02:32;9.06;74.15
72756;SHT30;60881;55.002;73.232;2022-09-09T00:04:59;9.08;74.08
72756;SHT30;60881;55.002;73.232;2022-09-09T00:07:49;9.12;73.73
72756;SHT30;60881;55.002;73.232;2022-09-09T00:10:39;9.08;74.00
72756;SHT30;60881;55.002;73.232;2022-09-09T00:13:19;9.09;74.52
72756;SHT30;60881;55.002;73.232;2022-09-09T00:16:25;9.15;73.86
72756;SHT30;60881;55.002;73.232;2022-09-09T00:19:20;9.11;73.90
72756;SHT30;60881;55.002;73.232;2022-09-09T00:22:14;9.11;73.81
72756;SHT30;60881;55.002;73.232;2022-09-09T00:30:00;8.82;74.92
72756;SHT30;60881;55.002;73.232;2022-09-09T00:32:38;8.81;74.84
72756;SHT30;60881;55.002;73.232;2022-09-09T00:35:29;8.79;75.13
72756;SHT30;60881;55.002;73.232;2022-09-09T00:38:01;8.72;75.05
72756;SHT30;60881;55.002;73.232;2022-09-09T00:40:45;8.65;75.29
72756;SHT30;60881;55.002;73.232;2022-09-09T00:43:28;8.58;75.60
72756;SHT30;60881;55.002;73.232;2022-09-09T00:49:12;8.42;75.59
72756;SHT30;60881;55.002;73.232;2022-09-09T00:57:36;8.35;76.61
72756;SHT30;60881;55.002;73.232;2022-09-09T01:00:26;8.38;76.57
72756;SHT30;60881;55.002;73.232;2022-09-09T01:17:15;8.58;75.59
72756;SHT30;60881;55.002;73.232;2022-09-09T01:28:41;8.85;73.72
72756;SHT30;60881;55.002;73.232;2022-09-09T01:31:28;8.85;73.50
72756;SHT30;60881;55.002;73.232;2022-09-09T01:33:57;8.88;73.98
72756;SHT30;60881;55.002;73.232;2022-09-09T01:36:38;8.98;73.81
72756;SHT30;60881;55.002;73.232;2022-09-09T01:39:07;9.05;73.47
72756;SHT30;60881;55.002;73.232;2022-09-09T01:41:41;9.18;73.23
72756;SHT30;60881;55.002;73.232;2022-09-09T01:44:11;9.33;73.10
72756;SHT30;60881;55.002;73.232;2022-09-09T01:46:46;9.49;73.33
72756;SHT30;60881;55.002;73.232;2022-09-09T01:49:21;9.60;72.42
72756;SHT30;60881;55.002;73.232;2022-09-09T01:51:51;9.70;72.03
72756;SHT30;60881;55.002;73.232;2022-09-09T01:54:26;9.77;71.82
72756;SHT30;60881;55.002;73.232;2022-09-09T02:00:08;9.97;70.66
72756;SHT30;60881;55.002;73.232;2022-09-09T02:09:13;10.31;69.11
72756;SHT30;60881;55.002;73.232;2022-09-09T02:11:44;10.34;68.74
72756;SHT30;60881;55.002;73.232;2022-09-09T02:14:36;10.42;68.20
72756;SHT30;60881;55.002;73.232;2022-09-09T02:17:09;10.44;68.13
72756;SHT30;60881;55.002;73.232;2022-09-09T02:20:11;10.45;68.08
72756;SHT30;60881;55.002;73.232;2022-09-09T02:22:56;10.47;68.39
72756;SHT30;60881;55.002;73.232;2022-09-09T02:25:30;10.45;68.31
72756;SHT30;60881;55.002;73.232;2022-09-09T02:28:07;10.50;67.49
72756;SHT30;60881;55.002;73.232;2022-09-09T02:30:37;10.55;68.08
72756;SHT30;60881;55.002;73.232;2022-09-09T02:33:06;10.57;67.72
72756;SHT30;60881;55.002;73.232;2022-09-09T02:35:50;10.67;67.94
72756;SHT30;60881;55.002;73.232;2022-09-09T02:38:22;10.72;67.10
72756;SHT30;60881;55.002;73.232;2022-09-09T02:41:07;10.76;67.56
72756;SHT30;60881;55.002;73.232;2022-09-09T02:43:45;10.81;66.85
72756;SHT30;60881;55.002;73.232;2022-09-09T02:52:06;10.99;66.73
72756;SHT30;60881;55.002;73.232;2022-09-09T02:54:37;11.05;66.91
72756;SHT30;60881;55.002;73.232;2022-09-09T02:57:27;11.11;65.89
72756;SHT30;60881;55.002;73.232;2022-09-09T02:59:57;11.18;65.98
72756;SHT30;60881;55.002;73.232;2022-09-09T03:02:25;11.22;65.95
72756;SHT30;60881;55.002;73.232;2022-09-09T03:04:56;11.30;66.10
72756;SHT30;60881;55.002;73.232;2022-09-09T03:07:22;11.38;65.89
72756;SHT30;60881;55.002;73.232;2022-09-09T03:09:51;11.46;65.48
72756;SHT30;60881;55.002;73.232;2022-09-09T03:12:29;11.53;65.14
72756;SHT30;60881;55.002;73.232;2022-09-09T03:14:55;11.59;65.17
72756;SHT30;60881;55.002;73.232;2022-09-09T03:17:23;11.70;65.00
72756;SHT30;60881;55.002;73.232;2022-09-09T03:19:54;11.77;64.48
72756;SHT30;60881;55.002;73.232;2022-09-09T03:22:31;11.89;63.84
72756;SHT30;60881;55.002;73.232;2022-09-09T03:25:00;11.96;63.48
72756;SHT30;60881;55.002;73.232;2022-09-09T03:27:28;12.04;63.49
72756;SHT30;60881;55.002;73.232;2022-09-09T03:30:00;12.17;62.77
72756;SHT30;60881;55.002;73.232;2022-09-09T03:32:40;12.24;62.28
72756;SHT30;60881;55.002;73.232;2022-09-09T03:35:11;12.26;62.60
72756;SHT30;60881;55.002;73.232;2022-09-09T03:37:37;12.34;62.64
72756;SHT30;60881;55.002;73.232;2022-09-09T03:40:05;12.40;62.55
72756;SHT30;60881;55.002;73.232;2022-09-09T03:42:37;12.50;62.07
72756;SHT30;60881;55.002;73.232;2022-09-09T03:45:05;12.57;61.66
72756;SHT30;60881;55.002;73.232;2022-09-09T03:47:33;12.65;61.08
72756;SHT30;60881;55.002;73.232;2022-09-09T03:50:10;12.69;61.00
72756;SHT30;60881;55.002;73.232;2022-09-09T03:52:44;12.78;61.26
72756;SHT30;60881;55.002;73.232;2022-09-09T03:55:20;12.87;60.86
72756;SHT30;60881;55.002;73.232;2022-09-09T03:57:46;12.96;59.29
72756;SHT30;60881;55.002;73.232;2022-09-09T04:00:13;13.01;58.68
72756;SHT30;60881;55.002;73.232;2022-09-09T04:02:43;13.05;58.60
72756;SHT30;60881;55.002;73.232;2022-09-09T04:05:13;13.18;58.82
72756;SHT30;60881;55.002;73.232;2022-09-09T04:07:43;13.25;57.87
72756;SHT30;60881;55.002;73.232;2022-09-09T04:10:19;13.32;57.52
72756;SHT30;60881;55.002;73.232;2022-09-09T04:12:57;13.36;56.67
72756;SHT30;60881;55.002;73.232;2022-09-09T04:15:23;13.41;56.61
72756;SHT30;60881;55.002;73.232;2022-09-09T04:17:50;13.45;55.53
72756;SHT30;60881;55.002;73.232;2022-09-09T04:20:17;13.49;55.24
72756;SHT30;60881;55.002;73.232;2022-09-09T04:22:44;13.53;55.79
72756;SHT30;60881;55.002;73.232;2022-09-09T04:25:13;13.62;55.62
72756;SHT30;60881;55.002;73.232;2022-09-09T04:27:40;13.70;54.78
72756;SHT30;60881;55.002;73.232;2022-09-09T04:30:09;13.76;54.07
72756;SHT30;60881;55.002;73.232;2022-09-09T04:32:36;13.87;54.34
72756;SHT30;60881;55.002;73.232;2022-09-09T04:35:03;13.93;53.86
72756;SHT30;60881;55.002;73.232;2022-09-09T04:37:36;14.06;53.00
72756;SHT30;60881;55.002;73.232;2022-09-09T04:40:11;14.14;53.15
72756;SHT30;60881;55.002;73.232;2022-09-09T04:42:39;14.21;52.75
72756;SHT30;60881;55.002;73.232;2022-09-09T04:45:11;14.30;52.02
72756;SHT30;60881;55.002;73.232;2022-09-09T04:47:43;14.45;52.69
72756;SHT30;60881;55.002;73.232;2022-09-09T04:50:17;14.59;52.05
72756;SHT30;60881;55.002;73.232;2022-09-09T04:52:46;14.78;50.99
72756;SHT30;60881;55.002;73.232;2022-09-09T04:55:18;14.95;51.15
72756;SHT30;60881;55.002;73.232;2022-09-09T04:57:45;15.14;50.61
72756;SHT30;60881;55.002;73.232;2022-09-09T05:00:16;15.28;49.20
72756;SHT30;60881;55.002;73.232;2022-09-09T05:02:43;15.35;49.59
72756;SHT30;60881;55.002;73.232;2022-09-09T05:05:10;15.42;48.32
72756;SHT30;60881;55.002;73.232;2022-09-09T05:07:38;15.45;47.96
72756;SHT30;60881;55.002;73.232;2022-09-09T05:10:05;15.45;48.82
72756;SHT30;60881;55.002;73.232;2022-09-09T05:12:32;15.43;48.05
72756;SHT30;60881;55.002;73.232;2022-09-09T05:15:04;15.42;49.55
72756;SHT30;60881;55.002;73.232;2022-09-09T05:17:37;15.38;48.72
72756;SHT30;60881;55.002;73.232;2022-09-09T05:20:14;15.34;48.20
72756;SHT30;60881;55.002;73.232;2022-09-09T05:22:45;15.32;47.66
72756;SHT30;60881;55.002;73.232;2022-09-09T05:25:17;15.28;48.70
72756;SHT30;60881;55.002;73.232;2022-09-09T05:27:44;15.28;48.76
72756;SHT30;60881;55.002;73.232;2022-09-09T05:30:10;15.25;48.70
72756;SHT30;60881;55.002;73.232;2022-09-09T05:32:37;15.25;48.59
72756;SHT30;60881;55.002;73.232;2022-09-09T05:35:04;15.28;48.58
72756;SHT30;60881;55.002;73.232;2022-09-09T05:37:35;15.41;48.78
72756;SHT30;60881;55.002;73.232;2022-09-09T05:40:02;15.49;48.68
72756;SHT30;60881;55.002;73.232;2022-09-09T05:42:36;15.59;48.46
72756;SHT30;60881;55.002;73.232;2022-09-09T05:45:05;15.67;47.55
72756;SHT30;60881;55.002;73.232;2022-09-09T05:47:35;15.69;47.90
72756;SHT30;60881;55.002;73.232;2022-09-09T05:50:01;15.66;48.28
72756;SHT30;60881;55.002;73.232;2022-09-09T05:52:38;15.58;48.83
72756;SHT30;60881;55.002;73.232;2022-09-09T05:55:10;15.53;48.30
72756;SHT30;60881;55.002;73.232;2022-09-09T05:57:37;15.48;48.77
72756;SHT30;60881;55.002;73.232;2022-09-09T06:00:09;15.51;48.46
72756;SHT30;60881;55.002;73.232;2022-09-09T06:02:50;15.52;51.82
72756;SHT30;60881;55.002;73.232;2022-09-09T06:05:19;15.55;55.18
72756;SHT30;60881;55.002;73.232;2022-09-09T06:07:46;15.62;54.36
72756;SHT30;60881;55.002;73.232;2022-09-09T06:10:24;15.72;53.49
72756;SHT30;60881;55.002;73.232;2022-09-09T06:12:53;15.79;53.78
72756;SHT30;60881;55.002;73.232;2022-09-09T06:15:24;15.88;51.57
72756;SHT30;60881;55.002;73.232;2022-09-09T06:18:02;15.95;52.23
72756;SHT30;60881;55.002;73.232;2022-09-09T06:20:29;15.99;49.62
72756;SHT30;60881;55.002;73.232;2022-09-09T06:23:03;16.02;49.51
72756;SHT30;60881;55.002;73.232;2022-09-09T06:25:41;16.03;49.52
72756;SHT30;60881;55.002;73.232;2022-09-09T06:28:08;16.05;50.27
72756;SHT30;60881;55.002;73.232;2022-09-09T06:30:34;16.06;49.49
72756;SHT30;60881;55.002;73.232;2022-09-09T06:33:06;16.02;50.02
72756;SHT30;60881;55.002;73.232;2022-09-09T06:35:36;16.00;50.60
72756;SHT30;60881;55.002;73.232;2022-09-09T06:38:12;15.99;47.65
72756;SHT30;60881;55.002;73.232;2022-09-09T06:40:40;15.98;48.12
72756;SHT30;60881;55.002;73.232;2022-09-09T06:43:14;16.00;47.54
72756;SHT30;60881;55.002;73.232;2022-09-09T06:45:57;16.06;47.39
72756;SHT30;60881;55.002;73.232;2022-09-09T06:48:34;16.14;47.18
72756;SHT30;60881;55.002;73.232;2022-09-09T06:51:18;16.19;46.85
72756;SHT30;60881;55.002;73.232;2022-09-09T06:53:46;16.24;45.79
72756;SHT30;60881;55.002;73.232;2022-09-09T06:56:18;16.34;46.74
72756;SHT30;60881;55.002;73.232;2022-09-09T06:58:52;16.46;46.22
72756;SHT30;60881;55.002;73.232;2022-09-09T07:01:28;16.54;46.32
72756;SHT30;60881;55.002;73.232;2022-09-09T07:04:04;16.60;43.89
72756;SHT30;60881;55.002;73.232;2022-09-09T07:06:46;16.70;44.57
72756;SHT30;60881;55.002;73.232;2022-09-09T07:09:17;16.74;44.23
72756;SHT30;60881;55.002;73.232;2022-09-09T07:11:48;16.85;42.93
72756;SHT30;60881;55.002;73.232;2022-09-09T07:14:18;16.97;42.05
72756;SHT30;60881;55.002;73.232;2022-09-09T07:16:53;17.10;42.78
72756;SHT30;60881;55.002;73.232;2022-09-09T07:19:20;17.21;41.39
72756;SHT30;60881;55.002;73.232;2022-09-09T07:21:55;17.30;40.91
72756;SHT30;60881;55.002;73.232;2022-09-09T07:24:23;17.39;40.17
72756;SHT30;60881;55.002;73.232;2022-09-09T07:26:56;17.46;40.65
72756;SHT30;60881;55.002;73.232;2022-09-09T07:29:22;17.58;41.37
72756;SHT30;60881;55.002;73.232;2022-09-09T07:31:50;17.61;40.91
72756;SHT30;60881;55.002;73.232;2022-09-09T07:34:22;17.59;39.80
72756;SHT30;60881;55.002;73.232;2022-09-09T07:36:49;17.58;39.50
72756;SHT30;60881;55.002;73.232;2022-09-09T07:39:19;17.58;39.86
72756;SHT30;60881;55.002;73.232;2022-09-09T07:41:49;17.58;40.03
72756;SHT30;60881;55.002;73.232;2022-09-09T07:44:24;17.55;40.06
72756;SHT30;60881;55.002;73.232;2022-09-09T07:46:59;17.48;38.95
72756;SHT30;60881;55.002;73.232;2022-09-09T07:49:33;17.46;40.05
72756;SHT30;60881;55.002;73.232;2022-09-09T07:52:03;17.42;38.20
72756;SHT30;60881;55.002;73.232;2022-09-09T07:54:32;17.45;39.22
72756;SHT30;60881;55.002;73.232;2022-09-09T07:57:01;17.46;38.71
72756;SHT30;60881;55.002;73.232;2022-09-09T07:59:36;17.51;38.60
72756;SHT30;60881;55.002;73.232;2022-09-09T08:02:13;17.59;38.52
72756;SHT30;60881;55.002;73.232;2022-09-09T08:04:46;17.71;37.70
72756;SHT30;60881;55.002;73.232;2022-09-09T08:07:15;17.83;37.67
72756;SHT30;60881;55.002;73.232;2022-09-09T08:09:48;17.96;37.90
72756;SHT30;60881;55.002;73.232;2022-09-09T08:12:21;18.08;38.34
72756;SHT30;60881;55.002;73.232;2022-09-09T08:14:48;18.21;37.17
72756;SHT30;60881;55.002;73.232;2022-09-09T08:17:16;18.30;36.80
72756;SHT30;60881;55.002;73.232;2022-09-09T08:19:47;18.40;37.35
72756;SHT30;60881;55.002;73.232;2022-09-09T08:22:19;18.52;37.45
72756;SHT30;60881;55.002;73.232;2022-09-09T08:24:46;18.60;35.74
72756;SHT30;60881;55.002;73.232;2022-09-09T08:27:23;18.68;37.02
72756;SHT30;60881;55.002;73.232;2022-09-09T08:29:51;18.80;36.13
72756;SHT30;60881;55.002;73.232;2022-09-09T08:32:18;18.89;36.68
72756;SHT30;60881;55.002;73.232;2022-09-09T08:34:46;18.91;36.43
72756;SHT30;60881;55.002;73.232;2022-09-09T08:37:20;18.94;35.78
72756;SHT30;60881;55.002;73.232;2022-09-09T08:39:48;18.93;36.35
72756;SHT30;60881;55.002;73.232;2022-09-09T08:42:41;18.93;36.79
72756;SHT30;60881;55.002;73.232;2022-09-09T08:50:30;18.97;36.10
72756;SHT30;60881;55.002;73.232;2022-09-09T08:53:23;19.03;37.67
72756;SHT30;60881;55.002;73.232;2022-09-09T08:56:09;19.04;36.79
72756;SHT30;60881;55.002;73.232;2022-09-09T08:58:52;19.11;36.94
72756;SHT30;60881;55.002;73.232;2022-09-09T09:07:45;19.21;34.89
72756;SHT30;60881;55.002;73.232;2022-09-09T09:12:53;19.24;32.51
72756;SHT30;60881;55.002;73.232;2022-09-09T09:15:26;19.25;33.22
72756;SHT30;60881;55.002;73.232;2022-09-09T09:17:56;19.25;32.59
72756;SHT30;60881;55.002;73.232;2022-09-09T09:23:58;19.30;32.26
72756;SHT30;60881;55.002;73.232;2022-09-09T09:26:32;19.34;31.27
72756;SHT30;60881;55.002;73.232;2022-09-09T09:29:03;19.34;31.97
72756;SHT30;60881;55.002;73.232;2022-09-09T09:31:35;19.39;30.17
72756;SHT30;60881;55.002;73.232;2022-09-09T09:34:02;19.43;30.83
72756;SHT30;60881;55.002;73.232;2022-09-09T09:36:56;19.44;33.16
72756;SHT30;60881;55.002;73.232;2022-09-09T09:39:31;19.39;33.27
72756;SHT30;60881;55.002;73.232;2022-09-09T09:42:13;19.37;32.60
72756;SHT30;60881;55.002;73.232;2022-09-09T09:44:43;19.28;32.76
72756;SHT30;60881;55.002;73.232;2022-09-09T09:47:20;19.21;32.88
72756;SHT30;60881;55.002;73.232;2022-09-09T09:50:16;19.23;31.92
72756;SHT30;60881;55.002;73.232;2022-09-09T09:52:58;19.18;33.26
72756;SHT30;60881;55.002;73.232;2022-09-09T09:55:28;19.17;33.56
72756;SHT30;60881;55.002;73.232;2022-09-09T09:58:05;19.14;32.71
72756;SHT30;60881;55.002;73.232;2022-09-09T10:00:34;19.08;32.29
72756;SHT30;60881;55.002;73.232;2022-09-09T10:03:30;18.96;32.96
72756;SHT30;60881;55.002;73.232;2022-09-09T10:06:09;18.89;34.01
72756;SHT30;60881;55.002;73.232;2022-09-09T10:08:45;18.79;34.42
72756;SHT30;60881;55.002;73.232;2022-09-09T10:13:53;18.80;32.38
72756;SHT30;60881;55.002;73.232;2022-09-09T10:19:17;18.87;32.24
72756;SHT30;60881;55.002;73.232;2022-09-09T10:24:38;18.91;33.19
72756;SHT30;60881;55.002;73.232;2022-09-09T10:35:34;19.10;32.27
72756;SHT30;60881;55.002;73.232;2022-09-09T10:38:14;19.17;32.28
72756;SHT30;60881;55.002;73.232;2022-09-09T10:55:38;19.35;32.30
72756;SHT30;60881;55.002;73.232;2022-09-09T10:58:14;19.34;32.80
72756;SHT30;60881;55.002;73.232;2022-09-09T11:00:54;19.28;33.61
72756;SHT30;60881;55.002;73.232;2022-09-09T11:03:35;19.20;33.23
72756;SHT30;60881;55.002;73.232;2022-09-09T11:06:09;19.11;33.52
72756;SHT30;60881;55.002;73.232;2022-09-09T11:08:40;19.07;33.97
72756;SHT30;60881;55.002;73.232;2022-09-09T11:11:27;18.99;34.00
72756;SHT30;60881;55.002;73.232;2022-09-09T11:14:12;18.97;34.00
72756;SHT30;60881;55.002;73.232;2022-09-09T11:19:25;18.96;33.86
72756;SHT30;60881;55.002;73.232;2022-09-09T11:21:53;18.94;34.24
72756;SHT30;60881;55.002;73.232;2022-09-09T11:24:40;18.87;34.37
72756;SHT30;60881;55.002;73.232;2022-09-09T11:27:24;18.84;33.03
72756;SHT30;60881;55.002;73.232;2022-09-09T11:30:20;18.84;33.18
72756;SHT30;60881;55.002;73.232;2022-09-09T11:35:44;18.77;32.76
72756;SHT30;60881;55.002;73.232;2022-09-09T11:41:19;18.63;32.71
72756;SHT30;60881;55.002;73.232;2022-09-09T11:43:52;18.60;32.98
72756;SHT30;60881;55.002;73.232;2022-09-09T11:46:39;18.57;31.87
72756;SHT30;60881;55.002;73.232;2022-09-09T11:49:29;18.55;32.44
72756;SHT30;60881;55.002;73.232;2022-09-09T11:51:57;18.52;32.07
72756;SHT30;60881;55.002;73.232;2022-09-09T11:54:46;18.49;32.07
72756;SHT30;60881;55.002;73.232;2022-09-09T11:57:26;18.47;31.95
72756;SHT30;60881;55.002;73.232;2022-09-09T12:00:37;18.49;32.58
72756;SHT30;60881;55.002;73.232;2022-09-09T12:08:43;18.36;31.60
72756;SHT30;60881;55.002;73.232;2022-09-09T12:11:29;18.32;31.81
72756;SHT30;60881;55.002;73.232;2022-09-09T12:14:02;18.29;32.47
72756;SHT30;60881;55.002;73.232;2022-09-09T12:16:36;18.23;32.46
72756;SHT30;60881;55.002;73.232;2022-09-09T12:27:34;18.02;33.24
72756;SHT30;60881;55.002;73.232;2022-09-09T12:30:07;17.99;33.70
72756;SHT30;60881;55.002;73.232;2022-09-09T12:32:35;17.95;34.14
72756;SHT30;60881;55.002;73.232;2022-09-09T12:37:37;17.88;34.48
72756;SHT30;60881;55.002;73.232;2022-09-09T12:40:18;17.88;34.44
72756;SHT30;60881;55.002;73.232;2022-09-09T12:42:46;17.85;34.69
72756;SHT30;60881;55.002;73.232;2022-09-09T12:45:18;17.79;34.79
72756;SHT30;60881;55.002;73.232;2022-09-09T12:47:56;17.76;34.73
72756;SHT30;60881;55.002;73.232;2022-09-09T12:50:32;17.78;34.60
72756;SHT30;60881;55.002;73.232;2022-09-09T12:53:08;17.75;35.25
72756;SHT30;60881;55.002;73.232;2022-09-09T12:55:38;17.72;35.38
72756;SHT30;60881;55.002;73.232;2022-09-09T12:58:16;17.65;35.50
72756;SHT30;60881;55.002;73.232;2022-09-09T13:00:51;17.62;36.09
72756;SHT30;60881;55.002;73.232;2022-09-09T13:03:24;17.58;36.44
72756;SHT30;60881;55.002;73.232;2022-09-09T13:05:51;17.49;36.69
72756;SHT30;60881;55.002;73.232;2022-09-09T13:08:20;17.42;37.27
72756;SHT30;60881;55.002;73.232;2022-09-09T13:10:52;17.36;37.28
72756;SHT30;60881;55.002;73.232;2022-09-09T13:13:26;17.28;38.01
72756;SHT30;60881;55.002;73.232;2022-09-09T13:15:56;17.22;37.74
72756;SHT30;60881;55.002;73.232;2022-09-09T13:18:30;17.20;37.94
72756;SHT30;60881;55.002;73.232;2022-09-09T13:21:02;17.11;38.21
72756;SHT30;60881;55.002;73.232;2022-09-09T13:23:32;17.07;38.69
72756;SHT30;60881;55.002;73.232;2022-09-09T13:26:04;16.95;39.53
72756;SHT30;60881;55.002;73.232;2022-09-09T13:28:32;16.87;39.25
72756;SHT30;60881;55.002;73.232;2022-09-09T13:31:03;16.81;39.63
72756;SHT30;60881;55.002;73.232;2022-09-09T13:33:36;16.71;39.90
72756;SHT30;60881;55.002;73.232;2022-09-09T13:36:12;16.68;39.91
72756;SHT30;60881;55.002;73.232;2022-09-09T13:41:20;16.52;40.50
72756;SHT30;60881;55.002;73.232;2022-09-09T13:43:53;16.44;40.42
72756;SHT30;60881;55.002;73.232;2022-09-09T13:46:38;16.42;40.70
72756;SHT30;60881;55.002;73.232;2022-09-09T13:51:47;16.24;41.75
72756;SHT30;60881;55.002;73.232;2022-09-09T13:54:16;16.19;41.52
72756;SHT30;60881;55.002;73.232;2022-09-09T13:56:45;16.17;41.36
72756;SHT30;60881;55.002;73.232;2022-09-09T13:59:16;16.10;41.77
72756;SHT30;60881;55.002;73.232;2022-09-09T14:01:48;16.03;42.30
72756;SHT30;60881;55.002;73.232;2022-09-09T14:04:31;15.96;41.96
72756;SHT30;60881;55.002;73.232;2022-09-09T14:06:58;15.92;42.10
72756;SHT30;60881;55.002;73.232;2022-09-09T14:09:25;15.82;42.32
72756;SHT30;60881;55.002;73.232;2022-09-09T14:12:02;15.76;42.38
72756;SHT30;60881;55.002;73.232;2022-09-09T14:14:28;15.70;42.44
72756;SHT30;60881;55.002;73.232;2022-09-09T14:16:55;15.62;42.80
72756;SHT30;60881;55.002;73.232;2022-09-09T14:19:21;15.56;42.89
72756;SHT30;60881;55.002;73.232;2022-09-09T14:21:48;15.51;43.21
72756;SHT30;60881;55.002;73.232;2022-09-09T14:24:27;15.46;43.83
72756;SHT30;60881;55.002;73.232;2022-09-09T14:26:56;15.38;43.35
72756;SHT30;60881;55.002;73.232;2022-09-09T14:29:28;15.31;43.72
72756;SHT30;60881;55.002;73.232;2022-09-09T14:32:05;15.21;44.08
72756;SHT30;60881;55.002;73.232;2022-09-09T14:34:41;15.19;43.98
72756;SHT30;60881;55.002;73.232;2022-09-09T14:37:07;15.15;44.26
72756;SHT30;60881;55.002;73.232;2022-09-09T14:39:34;15.12;44.27
72756;SHT30;60881;55.002;73.232;2022-09-09T14:42:01;15.07;44.16
72756;SHT30;60881;55.002;73.232;2022-09-09T14:44:28;15.07;44.45
72756;SHT30;60881;55.002;73.232;2022-09-09T14:46:55;14.98;44.21
72756;SHT30;60881;55.002;73.232;2022-09-09T14:49:21;14.98;44.51
72756;SHT30;60881;55.002;73.232;2022-09-09T14:51:57;14.92;44.36
72756;SHT30;60881;55.002;73.232;2022-09-09T14:54:35;14.92;44.24
72756;SHT30;60881;55.002;73.232;2022-09-09T14:57:02;14.91;44.49
72756;SHT30;60881;55.002;73.232;2022-09-09T14:59:28;14.88;44.54
72756;SHT30;60881;55.002;73.232;2022-09-09T15:01:56;14.84;44.72
72756;SHT30;60881;55.002;73.232;2022-09-09T15:04:23;14.83;44.55
72756;SHT30;60881;55.002;73.232;2022-09-09T15:06:50;14.77;44.79
72756;SHT30;60881;55.002;73.232;2022-09-09T15:09:19;14.78;45.13
72756;SHT30;60881;55.002;73.232;2022-09-09T15:11:50;14.74;44.96
72756;SHT30;60881;55.002;73.232;2022-09-09T15:14:21;14.73;45.09
72756;SHT30;60881;55.002;73.232;2022-09-09T15:16:47;14.68;45.39
72756;SHT30;60881;55.002;73.232;2022-09-09T15:19:15;14.70;45.44
72756;SHT30;60881;55.002;73.232;2022-09-09T15:21:41;14.68;45.53
72756;SHT30;60881;55.002;73.232;2022-09-09T15:24:09;14.67;46.02
72756;SHT30;60881;55.002;73.232;2022-09-09T15:26:37;14.61;46.13
72756;SHT30;60881;55.002;73.232;2022-09-09T15:29:04;14.60;45.92
72756;SHT30;60881;55.002;73.232;2022-09-09T15:31:32;14.56;45.97
72756;SHT30;60881;55.002;73.232;2022-09-09T15:34:06;14.34;48.69
72756;SHT30;60881;55.002;73.232;2022-09-09T15:36:38;14.30;47.75
72756;SHT30;60881;55.002;73.232;2022-09-09T15:39:07;14.20;48.76
72756;SHT30;60881;55.002;73.232;2022-09-09T15:41:34;14.09;50.63
72756;SHT30;60881;55.002;73.232;2022-09-09T15:44:01;14.02;50.41
72756;SHT30;60881;55.002;73.232;2022-09-09T15:46:39;13.96;49.24
72756;SHT30;60881;55.002;73.232;2022-09-09T15:49:17;13.87;49.79
72756;SHT30;60881;55.002;73.232;2022-09-09T15:51:56;13.83;51.36
72756;SHT30;60881;55.002;73.232;2022-09-09T15:54:35;13.65;50.19
72756;SHT30;60881;55.002;73.232;2022-09-09T15:57:11;13.75;50.07
72756;SHT30;60881;55.002;73.232;2022-09-09T15:59:48;13.80;50.17
72756;SHT30;60881;55.002;73.232;2022-09-09T16:02:15;13.83;50.45
72756;SHT30;60881;55.002;73.232;2022-09-09T16:04:41;13.86;50.17
72756;SHT30;60881;55.002;73.232;2022-09-09T16:07:07;13.96;50.26
72756;SHT30;60881;55.002;73.232;2022-09-09T16:09:34;14.00;49.71
72756;SHT30;60881;55.002;73.232;2022-09-09T16:12:07;14.02;49.31
72756;SHT30;60881;55.002;73.232;2022-09-09T16:14:35;14.00;49.30
72756;SHT30;60881;55.002;73.232;2022-09-09T16:17:04;13.83;51.95
72756;SHT30;60881;55.002;73.232;2022-09-09T16:19:32;13.34;53.61
72756;SHT30;60881;55.002;73.232;2022-09-09T16:21:58;13.09;54.17
72756;SHT30;60881;55.002;73.232;2022-09-09T16:24:35;12.99;55.61
72756;SHT30;60881;55.002;73.232;2022-09-09T16:27:02;12.78;56.02
72756;SHT30;60881;55.002;73.232;2022-09-09T16:29:29;12.60;56.36
72756;SHT30;60881;55.002;73.232;2022-09-09T16:32:08;12.36;55.02
72756;SHT30;60881;55.002;73.232;2022-09-09T16:34:38;12.28;55.88
72756;SHT30;60881;55.002;73.232;2022-09-09T16:37:11;12.27;56.62
72756;SHT30;60881;55.002;73.232;2022-09-09T16:39:48;12.23;57.55
72756;SHT30;60881;55.002;73.232;2022-09-09T16:42:14;12.20;57.25
72756;SHT30;60881;55.002;73.232;2022-09-09T16:44:42;12.17;56.39
72756;SHT30;60881;55.002;73.232;2022-09-09T16:47:11;12.21;56.37
72756;SHT30;60881;55.002;73.232;2022-09-09T16:49:38;12.28;55.77
72756;SHT30;60881;55.002;73.232;2022-09-09T16:52:05;12.33;57.79
72756;SHT30;60881;55.002;73.232;2022-09-09T16:54:36;12.26;57.46
72756;SHT30;60881;55.002;73.232;2022-09-09T16:57:03;12.28;58.19
72756;SHT30;60881;55.002;73.232;2022-09-09T16:59:30;12.31;59.27
72756;SHT30;60881;55.002;73.232;2022-09-09T17:01:58;12.30;59.59
72756;SHT30;60881;55.002;73.232;2022-09-09T17:04:27;12.24;60.08
72756;SHT30;60881;55.002;73.232;2022-09-09T17:06:54;12.23;59.98
72756;SHT30;60881;55.002;73.232;2022-09-09T17:09:22;12.20;59.46
72756;SHT30;60881;55.002;73.232;2022-09-09T17:11:50;12.23;57.96
72756;SHT30;60881;55.002;73.232;2022-09-09T17:14:20;12.34;56.18
72756;SHT30;60881;55.002;73.232;2022-09-09T17:16:56;12.40;56.48
72756;SHT30;60881;55.002;73.232;2022-09-09T17:19:23;12.48;55.35
72756;SHT30;60881;55.002;73.232;2022-09-09T17:21:54;12.52;56.11
72756;SHT30;60881;55.002;73.232;2022-09-09T17:24:28;12.27;57.45
72756;SHT30;60881;55.002;73.232;2022-09-09T17:26:57;12.06;59.54
72756;SHT30;60881;55.002;73.232;2022-09-09T17:29:25;11.97;60.55
72756;SHT30;60881;55.002;73.232;2022-09-09T17:32:02;11.98;60.88
72756;SHT30;60881;55.002;73.232;2022-09-09T17:34:31;12.01;58.78
72756;SHT30;60881;55.002;73.232;2022-09-09T17:36:58;12.06;56.76
72756;SHT30;60881;55.002;73.232;2022-09-09T17:39:26;12.14;56.81
72756;SHT30;60881;55.002;73.232;2022-09-09T17:41:53;12.21;58.65
72756;SHT30;60881;55.002;73.232;2022-09-09T17:44:31;12.24;58.82
72756;SHT30;60881;55.002;73.232;2022-09-09T17:46:58;12.12;58.22
72756;SHT30;60881;55.002;73.232;2022-09-09T17:49:26;11.89;58.65
72756;SHT30;60881;55.002;73.232;2022-09-09T17:51:53;11.79;60.02
72756;SHT30;60881;55.002;73.232;2022-09-09T17:54:21;11.70;61.15
72756;SHT30;60881;55.002;73.232;2022-09-09T17:56:49;11.65;61.53
72756;SHT30;60881;55.002;73.232;2022-09-09T17:59:26;11.55;61.53
72756;SHT30;60881;55.002;73.232;2022-09-09T18:01:53;11.50;62.14
72756;SHT30;60881;55.002;73.232;2022-09-09T18:04:20;11.46;62.84
72756;SHT30;60881;55.002;73.232;2022-09-09T18:06:52;11.36;62.84